Time;durP1;ratioP1;P1;durP2;ratioP2;P2;SDS_P1;SDS_P2;PMS_P1;PMS_P2;Temp;Humidity;BMP_temperature;BMP_pressure;BME280_temperature;BME280_humidity;BME280_pressure;Samples;Min_cycle;Max_cycle;Signal;HPM_P1;HPM_P2
2022/11/26 00:00:41;;;;;;;4.63;2.33;;;;;;;5.91;47.50;94287.72;5100227;28;20021;-76
2022/11/26 00:03:08;;;;;;;4.88;2.40;;;;;;;5.69;47.22;94269.63;5100434;28;20031;-77
2022/11/26 00:05:35;;;;;;;3.60;2.33;;;;;;;5.89;47.35;94287.19;5102028;28;20057;-76
2022/11/26 00:08:02;;;;;;;2.85;1.77;;;;;;;5.64;47.72;94274.91;5097446;28;20036;-77
2022/11/26 00:10:30;;;;;;;4.90;3.05;;;;;;;5.68;47.91;94262.75;5100312;28;20030;-77
2022/11/26 00:12:56;;;;;;;6.60;2.58;;;;;;;5.89;47.58;94290.63;5099248;28;20081;-77
2022/11/26 00:15:25;;;;;;;3.38;2.10;;;;;;;5.86;47.73;94285.91;5101269;28;20032;-76
2022/11/26 00:17:52;;;;;;;9.40;4.60;;;;;;;6.04;47.39;94281.84;5101673;28;20027;-77
2022/11/26 00:20:21;;;;;;;7.05;3.53;;;;;;;6.23;47.16;94287.31;5098132;28;20112;-76
2022/11/26 00:22:53;;;;;;;9.55;4.32;;;;;;;6.27;46.96;94272.47;5099497;28;20027;-76
2022/11/26 00:25:25;;;;;;;8.73;4.20;;;;;;;6.44;46.63;94278.19;5099005;28;20065;-77
2022/11/26 00:27:53;;;;;;;10.07;4.53;;;;;;;6.48;46.25;94281.84;5099466;28;20024;-76
2022/11/26 00:30:26;;;;;;;7.13;3.03;;;;;;;6.38;46.05;94250.22;5100042;28;20039;-78
2022/11/26 00:32:53;;;;;;;5.43;3.00;;;;;;;6.42;45.97;94252.03;5099237;28;20075;-77
2022/11/26 00:35:20;;;;;;;4.65;2.28;;;;;;;6.66;45.73;94283.81;5097612;28;20024;-77
2022/11/26 00:37:50;;;;;;;4.70;2.45;;;;;;;6.51;45.54;94257.50;5098543;28;20065;-77
2022/11/26 00:40:24;;;;;;;4.20;2.55;;;;;;;6.67;45.40;94288.03;5100349;28;20062;-76
2022/11/26 00:42:51;;;;;;;4.72;2.50;;;;;;;6.64;45.38;94290.47;5099451;28;20084;-77
2022/11/26 00:45:22;;;;;;;4.07;2.67;;;;;;;6.48;45.28;94265.22;5098201;28;20050;-76
2022/11/26 00:47:47;;;;;;;3.75;2.38;;;;;;;6.54;45.15;94285.25;5095727;28;20061;-76
2022/11/26 00:50:22;;;;;;;9.88;4.63;;;;;;;6.62;45.28;94306.59;5101301;28;20525;-77
2022/11/26 00:52:51;;;;;;;8.75;4.75;;;;;;;6.58;45.71;94308.22;5095623;28;20012;-77
2022/11/26 00:55:45;;;;;;;6.97;4.40;;;;;;;6.49;45.57;94315.16;5097162;28;20051;-75
2022/11/26 00:58:20;;;;;;;9.18;3.85;;;;;;;6.25;45.90;94293.13;5097719;28;20039;-76
2022/11/26 01:00:45;;;;;;;9.15;4.80;;;;;;;6.28;46.23;94316.34;5098431;28;20488;-76
2022/11/26 01:03:11;;;;;;;11.95;5.82;;;;;;;6.31;46.20;94302.59;5096002;28;20030;-76
2022/11/26 01:05:36;;;;;;;14.73;5.30;;;;;;;6.30;46.48;94308.94;5101578;28;20028;-77
2022/11/26 01:08:17;;;;;;;10.73;4.63;;;;;;;6.21;46.12;94289.44;5098191;28;20382;-78
2022/11/26 01:10:43;;;;;;;5.70;4.20;;;;;;;6.13;46.24;94279.41;5099621;28;20036;-76
2022/11/26 01:13:09;;;;;;;7.65;4.43;;;;;;;6.10;45.94;94290.53;5097234;28;20036;-77
2022/11/26 01:15:35;;;;;;;8.13;4.80;;;;;;;6.04;46.33;94297.69;5096587;28;20028;-75
2022/11/26 01:18:00;;;;;;;10.65;5.53;;;;;;;6.09;46.45;94300.31;5097987;28;20007;-77
2022/11/26 01:20:28;;;;;;;9.30;4.28;;;;;;;6.09;46.40;94307.44;5098909;28;20067;-77
2022/11/26 01:22:56;;;;;;;7.80;4.53;;;;;;;6.00;46.59;94286.09;5097243;28;20587;-76
2022/11/26 01:25:24;;;;;;;7.63;4.00;;;;;;;6.22;46.42;94320.84;5097804;28;20028;-76
2022/11/26 01:27:50;;;;;;;5.20;3.67;;;;;;;6.06;46.69;94302.72;5095954;28;20028;-75
2022/11/26 01:30:20;;;;;;;5.93;3.95;;;;;;;6.02;46.74;94317.53;5097964;28;20078;-76
2022/11/26 01:32:46;;;;;;;8.07;4.60;;;;;;;6.01;46.70;94306.16;5097143;28;20059;-76
2022/11/26 01:35:12;;;;;;;6.00;3.80;;;;;;;5.95;46.82;94321.25;5093638;28;20057;-76
2022/11/26 01:37:38;;;;;;;4.55;2.95;;;;;;;5.94;46.58;94303.81;5096131;28;20073;-75
2022/11/26 01:40:18;;;;;;;7.45;3.70;;;;;;;5.96;46.68;94301.69;5096794;28;20058;-78
2022/11/26 01:42:49;;;;;;;14.85;5.72;;;;;;;5.99;46.66;94303.78;5095385;28;20040;-77
2022/11/26 01:45:17;;;;;;;7.30;4.10;;;;;;;5.63;47.16;94306.88;5092415;28;20020;-76
2022/11/26 01:47:43;;;;;;;6.85;3.88;;;;;;;5.62;47.51;94319.28;5096112;28;20048;-76
2022/11/26 01:50:26;;;;;;;5.10;3.10;;;;;;;5.75;47.20;94317.88;5096473;28;20055;-76
2022/11/26 01:52:55;;;;;;;7.03;2.85;;;;;;;5.61;47.46;94319.53;5097483;28;20040;-76
2022/11/26 01:55:20;;;;;;;7.55;3.60;;;;;;;5.53;47.24;94297.09;5096549;28;20020;-76
2022/11/26 01:57:46;;;;;;;4.03;2.85;;;;;;;5.25;47.08;94269.50;5099518;28;20044;-75
2022/11/26 02:00:12;;;;;;;4.25;2.50;;;;;;;5.27;47.21;94291.13;5098248;28;20028;-76
2022/11/26 02:02:38;;;;;;;2.50;1.83;;;;;;;5.20;47.32;94314.34;5097968;28;20054;-76
2022/11/26 02:05:14;;;;;;;5.00;3.47;;;;;;;5.41;47.37;94315.09;5102896;28;20106;-75
2022/11/26 02:07:40;;;;;;;5.32;3.40;;;;;;;4.73;48.46;94298.88;5095637;28;20048;-75
2022/11/26 02:10:06;;;;;;;6.25;3.97;;;;;;;4.83;48.32;94303.34;5097478;28;20040;-75
2022/11/26 02:12:32;;;;;;;6.35;3.40;;;;;;;4.60;49.03;94294.91;5095267;28;20064;-76
2022/11/26 02:14:57;;;;;;;7.97;3.72;;;;;;;4.92;48.87;94328.09;5095248;28;20024;-76
2022/11/26 02:17:56;;;;;;;6.53;4.20;;;;;;;5.05;48.47;94328.34;5093309;28;20039;-76
2022/11/26 02:20:48;;;;;;;7.53;3.90;;;;;;;5.07;48.31;94320.97;5094839;28;20053;-76
2022/11/26 02:23:22;;;;;;;5.35;3.38;;;;;;;5.18;48.22;94326.25;5096320;28;20067;-75
2022/11/26 02:26:06;;;;;;;6.75;4.43;;;;;;;5.24;47.77;94319.88;5093776;28;20096;-76
2022/11/26 02:28:46;;;;;;;6.35;3.80;;;;;;;5.27;47.79;94325.44;5094709;28;20043;-76
2022/11/26 02:31:40;;;;;;;7.05;4.00;;;;;;;5.28;47.75;94331.50;5091527;28;20051;-77
2022/11/26 02:34:41;;;;;;;6.22;3.88;;;;;;;5.30;47.76;94321.44;5089920;28;20052;-76
2022/11/26 02:37:12;;;;;;;6.82;3.70;;;;;;;5.24;47.59;94309.31;5093982;28;20032;-75
2022/11/26 02:39:37;;;;;;;5.88;3.95;;;;;;;5.18;48.00;94297.22;5097148;28;20012;-76
2022/11/26 02:42:22;;;;;;;8.57;4.40;;;;;;;5.31;48.00;94315.91;5097198;28;20034;-76
2022/11/26 02:44:48;;;;;;;7.43;4.23;;;;;;;5.28;47.98;94310.41;5094581;28;20047;-76
2022/11/26 02:47:17;;;;;;;5.88;3.10;;;;;;;5.38;47.71;94323.56;5097136;28;20044;-75
2022/11/26 02:49:44;;;;;;;4.90;3.65;;;;;;;5.30;47.48;94313.53;5094228;28;20036;-76
2022/11/26 02:52:13;;;;;;;6.55;3.90;;;;;;;5.30;47.38;94309.06;5094221;28;20099;-76
2022/11/26 02:54:41;;;;;;;5.47;3.63;;;;;;;5.08;47.05;94279.59;5097324;28;20042;-76
2022/11/26 02:57:11;;;;;;;5.82;4.18;;;;;;;5.41;47.24;94325.66;5096309;28;20077;-76
2022/11/26 02:59:38;;;;;;;5.55;4.00;;;;;;;5.23;47.17;94302.50;5098676;28;20036;-75
2022/11/26 03:02:13;;;;;;;5.85;3.67;;;;;;;5.00;47.22;94277.47;5097932;28;20078;-75
2022/11/26 03:04:46;;;;;;;4.22;3.53;;;;;;;5.24;47.31;94320.66;5112676;28;20020;-76
2022/11/26 03:07:13;;;;;;;5.18;3.20;;;;;;;5.32;47.17;94343.88;5096600;28;20013;-76
2022/11/26 03:09:50;;;;;;;8.45;3.63;;;;;;;5.30;47.25;94342.56;5094730;28;20016;-76
2022/11/26 03:12:15;;;;;;;5.28;3.33;;;;;;;5.33;47.38;94349.94;5102676;28;20035;-77
2022/11/26 03:14:41;;;;;;;6.80;3.20;;;;;;;5.25;47.28;94342.56;5096860;28;20055;-75
2022/11/26 03:17:06;;;;;;;4.30;3.15;;;;;;;5.21;47.33;94346.78;5094369;28;20670;-76
2022/11/26 03:19:32;;;;;;;5.80;2.90;;;;;;;5.27;47.37;94353.66;5094465;28;20157;-75
2022/11/26 03:21:57;;;;;;;3.80;2.70;;;;;;;5.18;47.24;94350.75;5095474;28;20028;-76
2022/11/26 03:24:22;;;;;;;6.18;2.70;;;;;;;5.19;47.49;94365.50;5095578;28;20024;-74
2022/11/26 03:26:48;;;;;;;3.22;2.45;;;;;;;5.18;47.35;94363.16;5094389;28;20077;-76
2022/11/26 03:29:13;;;;;;;4.10;2.50;;;;;;;4.97;47.25;94357.91;5102348;28;20036;-77
2022/11/26 03:31:39;;;;;;;4.00;2.60;;;;;;;5.13;47.46;94383.19;5095764;28;20024;-76
2022/11/26 03:34:04;;;;;;;5.47;3.63;;;;;;;4.99;47.53;94363.69;5091921;28;20060;-76
2022/11/26 03:36:30;;;;;;;5.47;3.53;;;;;;;5.07;47.67;94384.25;5094288;28;20035;-76
2022/11/26 03:38:55;;;;;;;5.75;3.78;;;;;;;5.05;47.99;94391.63;5094845;28;20035;-76
2022/11/26 03:41:20;;;;;;;6.53;3.58;;;;;;;5.00;47.79;94383.72;5091388;28;20453;-75
2022/11/26 03:43:46;;;;;;;4.88;2.90;;;;;;;4.83;47.67;94358.69;5092822;28;20032;-75
2022/11/26 03:46:12;;;;;;;5.10;3.50;;;;;;;5.02;47.69;94394.81;5092200;28;20028;-76
2022/11/26 03:48:37;;;;;;;5.55;2.75;;;;;;;4.75;47.83;94346.81;5091102;28;20005;-76
2022/11/26 03:51:02;;;;;;;3.00;2.60;;;;;;;4.87;47.48;94370.28;5095647;28;20028;-75
2022/11/26 03:53:28;;;;;;;5.30;2.58;;;;;;;4.98;47.54;94396.38;5094509;28;20057;-75
2022/11/26 03:55:53;;;;;;;4.15;3.22;;;;;;;4.87;47.62;94378.19;5094537;28;20028;-75
2022/11/26 03:58:18;;;;;;;3.58;2.72;;;;;;;4.94;47.66;94405.84;5087494;28;21080;-76
2022/11/26 04:00:44;;;;;;;4.10;3.38;;;;;;;4.89;47.82;94403.25;5090773;28;20024;-75
2022/11/26 04:03:09;;;;;;;4.18;2.55;;;;;;;4.76;47.69;94385.28;5092248;28;20036;-76
2022/11/26 04:05:35;;;;;;;5.88;3.40;;;;;;;4.82;47.88;94409.81;5095127;28;20033;-74
2022/11/26 04:08:00;;;;;;;5.85;3.60;;;;;;;4.75;47.82;94402.16;5098252;28;20074;-75
2022/11/26 04:10:25;;;;;;;5.53;3.65;;;;;;;4.61;47.87;94380.00;5095902;28;20036;-75
2022/11/26 04:12:51;;;;;;;4.57;3.30;;;;;;;4.67;48.04;94405.31;5093922;28;20029;-76
2022/11/26 04:15:16;;;;;;;3.47;2.65;;;;;;;4.42;48.05;94371.00;5091941;28;20031;-76
2022/11/26 04:17:41;;;;;;;4.95;3.33;;;;;;;4.72;48.09;94421.13;5095548;28;20033;-76
2022/11/26 04:20:08;;;;;;;6.05;3.25;;;;;;;4.68;48.03;94427.97;5094998;28;20068;-75
2022/11/26 04:22:33;;;;;;;3.10;2.67;;;;;;;4.66;47.95;94424.81;5094626;28;20178;-75
2022/11/26 04:24:58;;;;;;;4.82;3.17;;;;;;;4.60;47.94;94431.13;5094869;28;20504;-75
2022/11/26 04:27:24;;;;;;;4.10;2.88;;;;;;;4.42;48.10;94413.16;5092323;28;19996;-76
2022/11/26 04:29:49;;;;;;;5.18;2.55;;;;;;;4.57;48.21;94426.38;5094974;28;20039;-75
2022/11/26 04:32:14;;;;;;;3.40;2.53;;;;;;;4.46;48.19;94415.00;5099504;28;20021;-76
2022/11/26 04:34:40;;;;;;;2.65;2.42;;;;;;;4.43;47.99;94420.00;5092326;28;20059;-76
2022/11/26 04:37:05;;;;;;;4.55;2.60;;;;;;;4.35;48.16;94412.63;5094631;28;20071;-76
2022/11/26 04:39:31;;;;;;;6.00;2.97;;;;;;;4.47;48.06;94442.16;5098852;28;20465;-76
2022/11/26 04:41:56;;;;;;;4.60;2.40;;;;;;;4.41;48.10;94435.28;5103990;28;20021;-76
2022/11/26 04:44:21;;;;;;;3.83;2.65;;;;;;;4.34;47.97;94443.44;5097216;28;20500;-75
2022/11/26 04:46:47;;;;;;;4.43;3.00;;;;;;;4.36;48.24;94453.69;5096364;28;20033;-76
2022/11/26 04:49:12;;;;;;;4.75;3.58;;;;;;;4.25;48.55;94434.41;5098151;28;20037;-76
2022/11/26 04:51:37;;;;;;;5.82;4.63;;;;;;;4.30;48.44;94452.09;5095664;28;20068;-75
2022/11/26 04:54:03;;;;;;;7.28;4.43;;;;;;;4.20;48.58;94445.72;5096646;28;20032;-76
2022/11/26 04:56:28;;;;;;;9.48;5.50;;;;;;;4.36;48.63;94464.22;5094072;28;20060;-76
2022/11/26 04:58:53;;;;;;;9.65;4.85;;;;;;;4.20;48.62;94455.47;5097170;28;20040;-76
2022/11/26 05:01:19;;;;;;;13.63;5.25;;;;;;;4.25;48.51;94472.06;5098750;28;20070;-75
2022/11/26 05:03:44;;;;;;;5.43;3.47;;;;;;;4.33;48.40;94478.72;5099713;28;20033;-75
2022/11/26 05:06:10;;;;;;;10.65;5.25;;;;;;;4.16;48.42;94447.25;5100042;28;20071;-75
2022/11/26 05:08:35;;;;;;;10.27;5.63;;;;;;;4.15;48.60;94450.97;5100715;28;20040;-74
2022/11/26 05:11:02;;;;;;;5.60;3.78;;;;;;;4.33;48.44;94478.72;5096782;28;20040;-76
2022/11/26 05:13:27;;;;;;;9.07;4.97;;;;;;;4.33;48.39;94488.44;5094703;28;20040;-75
2022/11/26 05:15:53;;;;;;;9.60;4.40;;;;;;;4.19;48.37;94461.78;5103989;28;20212;-75
2022/11/26 05:18:18;;;;;;;9.43;5.63;;;;;;;4.22;48.22;94469.94;5094568;28;19999;-75
2022/11/26 05:20:44;;;;;;;8.93;5.45;;;;;;;4.31;48.24;94488.69;5094854;28;20059;-77
2022/11/26 05:23:09;;;;;;;9.20;5.18;;;;;;;4.28;48.30;94487.34;5093530;28;20029;-76
2022/11/26 05:25:34;;;;;;;10.18;5.43;;;;;;;4.05;48.40;94455.41;5093705;28;20488;-77
2022/11/26 05:28:00;;;;;;;10.23;7.32;;;;;;;4.24;48.54;94501.28;5097594;28;20061;-77
2022/11/26 05:30:25;;;;;;;8.43;5.78;;;;;;;4.12;48.66;94483.06;5096567;28;20031;-78
2022/11/26 05:32:51;;;;;;;10.10;5.95;;;;;;;4.13;48.78;94483.84;5096594;28;20016;-76
2022/11/26 05:35:16;;;;;;;11.52;7.05;;;;;;;4.22;49.12;94509.44;5096569;28;20135;-76
2022/11/26 05:37:42;;;;;;;11.70;7.38;;;;;;;4.21;49.17;94501.78;5097571;28;20399;-77
2022/11/26 05:40:08;;;;;;;15.82;6.75;;;;;;;4.09;49.08;94488.84;5093140;28;20036;-75
2022/11/26 05:42:34;;;;;;;10.32;6.97;;;;;;;4.18;49.40;94505.72;5096389;28;20036;-74
2022/11/26 05:44:59;;;;;;;7.70;5.10;;;;;;;4.17;49.77;94505.97;5095243;28;20027;-75
2022/11/26 05:47:25;;;;;;;8.45;5.05;;;;;;;4.00;49.73;94477.22;5096065;28;20145;-75
2022/11/26 05:49:50;;;;;;;9.85;5.97;;;;;;;4.19;50.13;94517.84;5095284;28;20032;-74
2022/11/26 05:52:16;;;;;;;11.38;6.35;;;;;;;3.97;50.62;94498.78;5095872;28;20020;-74
2022/11/26 05:54:41;;;;;;;8.88;5.25;;;;;;;4.17;50.41;94511.25;5097453;28;22868;-75
2022/11/26 05:57:06;;;;;;;8.93;5.90;;;;;;;3.85;50.74;94463.97;5096124;28;20028;-75
2022/11/26 05:59:32;;;;;;;14.80;6.93;;;;;;;4.11;50.49;94501.75;5096342;28;20092;-75
2022/11/26 06:01:57;;;;;;;11.38;5.57;;;;;;;4.08;51.19;94518.84;5096495;28;20037;-76
2022/11/26 06:04:23;;;;;;;6.97;4.68;;;;;;;4.03;51.26;94516.19;5095449;28;20032;-75
2022/11/26 06:06:48;;;;;;;7.50;5.18;;;;;;;3.99;51.46;94504.59;5097929;28;20082;-76
2022/11/26 06:09:14;;;;;;;7.35;5.05;;;;;;;4.12;51.46;94519.13;5106501;28;20027;-76
2022/11/26 06:11:39;;;;;;;12.02;5.50;;;;;;;3.80;52.85;94520.00;5096126;28;20016;-75
2022/11/26 06:14:05;;;;;;;8.85;5.47;;;;;;;3.73;53.23;94510.72;5098754;28;20027;-76
2022/11/26 06:16:30;;;;;;;13.30;7.35;;;;;;;3.42;53.93;94480.81;5096181;28;20035;-76
2022/11/26 06:18:55;;;;;;;15.45;8.35;;;;;;;3.84;53.99;94530.81;5094027;28;20039;-75
2022/11/26 06:21:21;;;;;;;9.73;6.72;;;;;;;3.91;53.73;94536.66;5098824;28;20052;-75
2022/11/26 06:23:46;;;;;;;11.90;6.50;;;;;;;3.95;53.49;94524.56;5093247;28;20040;-76
2022/11/26 06:26:12;;;;;;;15.73;8.60;;;;;;;4.02;53.36;94530.38;5094618;28;20032;-76
2022/11/26 06:28:38;;;;;;;9.73;6.93;;;;;;;3.97;53.37;94517.19;5090196;28;20062;-76
2022/11/26 06:31:04;;;;;;;11.95;6.40;;;;;;;3.89;53.71;94533.47;5097727;28;20779;-76
2022/11/26 06:33:30;;;;;;;8.88;6.20;;;;;;;3.88;53.61;94513.47;5101642;28;20025;-76
2022/11/26 06:36:04;;;;;;;9.45;5.90;;;;;;;3.95;53.51;94514.03;5095887;28;20038;-75
2022/11/26 06:38:29;;;;;;;8.73;5.67;;;;;;;3.86;53.92;94512.94;5094980;28;20032;-75
2022/11/26 06:41:07;;;;;;;13.02;5.95;;;;;;;4.05;54.16;94532.53;5097112;28;20341;-75
2022/11/26 06:43:33;;;;;;;9.88;6.05;;;;;;;4.19;53.95;94541.56;5094176;28;20013;-74
2022/11/26 06:46:04;;;;;;;8.95;5.30;;;;;;;4.07;53.81;94517.25;5094128;28;20107;-75
2022/11/26 06:48:30;;;;;;;13.65;7.28;;;;;;;4.15;54.06;94519.41;5094260;28;20043;-77
2022/11/26 06:50:55;;;;;;;19.98;11.43;;;;;;;4.35;53.50;94528.50;5095420;28;20039;-77
2022/11/26 06:53:20;;;;;;;24.80;12.05;;;;;;;4.49;53.28;94545.41;5091489;28;20051;-75
2022/11/26 06:55:46;;;;;;;22.30;11.63;;;;;;;4.59;53.17;94550.72;5091045;28;20052;-77
2022/11/26 06:58:13;;;;;;;18.83;11.57;;;;;;;4.52;52.99;94518.56;5093111;28;20047;-75
2022/11/26 07:00:39;;;;;;;18.75;10.93;;;;;;;4.59;52.86;94521.75;5091838;28;20028;-76
2022/11/26 07:03:05;;;;;;;16.85;8.38;;;;;;;4.70;52.76;94532.06;5092548;28;20057;-76
2022/11/26 07:05:33;;;;;;;39.10;21.85;;;;;;;4.87;52.66;94549.50;5094403;28;20040;-75
2022/11/26 07:07:58;;;;;;;25.15;15.15;;;;;;;4.89;52.59;94550.06;5093914;28;20040;-74
2022/11/26 07:10:24;;;;;;;25.38;16.88;;;;;;;4.70;52.98;94552.34;5096617;28;20092;-75
2022/11/26 07:12:49;;;;;;;26.23;17.52;;;;;;;4.55;53.23;94554.94;5096662;28;20982;-76
2022/11/26 07:15:14;;;;;;;16.83;12.50;;;;;;;4.60;53.49;94544.41;5095354;28;20032;-75
2022/11/26 07:17:40;;;;;;;15.63;10.30;;;;;;;4.62;53.51;94547.56;5092828;28;20087;-76
2022/11/26 07:20:06;;;;;;;13.02;10.63;;;;;;;4.63;53.69;94546.53;5088583;28;20050;-76
2022/11/26 07:22:33;;;;;;;14.32;8.40;;;;;;;4.50;53.59;94526.69;5087902;28;20040;-76
2022/11/26 07:24:58;;;;;;;18.58;12.10;;;;;;;4.45;53.87;94541.72;5093510;28;20063;-75
2022/11/26 07:27:24;;;;;;;15.75;10.57;;;;;;;4.67;53.69;94545.75;5092023;28;20036;-75
2022/11/26 07:29:50;;;;;;;12.30;7.60;;;;;;;4.84;53.62;94550.03;5088013;28;20038;-76
2022/11/26 07:32:16;;;;;;;11.38;7.95;;;;;;;4.70;53.46;94547.06;5088686;28;20058;-77
2022/11/26 07:34:41;;;;;;;11.07;7.43;;;;;;;4.74;53.57;94553.44;5089951;28;20036;-77
2022/11/26 07:37:07;;;;;;;13.20;9.05;;;;;;;4.77;53.38;94546.84;5091318;28;20032;-77
2022/11/26 07:39:32;;;;;;;15.98;9.88;;;;;;;4.78;53.34;94549.22;5093861;28;20016;-76
2022/11/26 07:41:58;;;;;;;8.73;7.18;;;;;;;4.75;53.71;94554.22;5091072;28;20660;-75
2022/11/26 07:44:23;;;;;;;12.23;8.00;;;;;;;4.48;53.52;94506.94;5093351;28;20032;-77
2022/11/26 07:46:49;;;;;;;21.35;14.27;;;;;;;4.66;53.85;94530.19;5093771;28;20044;-77
2022/11/26 07:49:14;;;;;;;18.08;10.50;;;;;;;4.87;53.38;94547.66;5089398;28;20040;-76
2022/11/26 07:51:39;;;;;;;13.60;5.88;;;;;;;4.93;53.26;94556.38;5101587;28;20027;-75
2022/11/26 07:54:07;;;;;;;13.20;10.43;;;;;;;5.05;52.77;94568.28;5087531;28;21287;-76
2022/11/26 07:56:33;;;;;;;22.58;13.88;;;;;;;4.99;52.89;94569.31;5082852;28;20173;-77
2022/11/26 07:58:59;;;;;;;9.20;6.95;;;;;;;4.59;53.13;94529.66;5074257;28;20037;-77
2022/11/26 08:01:27;;;;;;;7.57;5.22;;;;;;;4.98;52.95;94577.50;5085430;28;20036;-75
2022/11/26 08:03:52;;;;;;;11.77;8.75;;;;;;;4.48;53.08;94523.56;5086473;28;20044;-77
2022/11/26 08:06:22;;;;;;;13.85;9.15;;;;;;;4.97;52.80;94587.25;5086226;28;20592;-75
2022/11/26 08:08:48;;;;;;;11.43;6.47;;;;;;;5.08;52.72;94585.44;5084642;28;20100;-76
2022/11/26 08:11:20;;;;;;;16.17;9.75;;;;;;;5.10;52.89;94557.75;5091999;28;20370;-77
2022/11/26 08:13:46;;;;;;;9.82;7.45;;;;;;;5.18;52.61;94579.41;5088250;28;20038;-75
2022/11/26 08:16:12;;;;;;;7.22;5.22;;;;;;;5.26;52.09;94576.22;5090145;28;20096;-74
2022/11/26 08:18:38;;;;;;;12.20;9.27;;;;;;;5.19;52.26;94581.75;5091024;28;20027;-76
2022/11/26 08:21:05;;;;;;;8.30;5.50;;;;;;;4.76;52.22;94529.44;5090491;28;20108;-76
2022/11/26 08:23:30;;;;;;;8.90;6.30;;;;;;;4.90;52.11;94531.31;5097152;28;21017;-75
2022/11/26 08:25:56;;;;;;;9.63;6.68;;;;;;;5.28;52.08;94585.47;5098313;28;20032;-76
2022/11/26 08:28:21;;;;;;;11.27;6.70;;;;;;;5.25;52.09;94585.19;5094430;28;20012;-77
2022/11/26 08:30:47;;;;;;;10.68;7.70;;;;;;;5.23;51.86;94563.59;5098813;28;20036;-77
2022/11/26 08:33:13;;;;;;;8.52;7.03;;;;;;;5.47;51.85;94578.66;5095896;28;20024;-76
2022/11/26 08:35:39;;;;;;;10.02;6.80;;;;;;;5.35;51.83;94564.13;5094733;28;20044;-76
2022/11/26 08:38:04;;;;;;;10.15;6.72;;;;;;;5.26;51.97;94555.13;5094326;28;20024;-75
2022/11/26 08:40:30;;;;;;;14.27;7.38;;;;;;;5.23;51.75;94566.22;5091941;28;20071;-75
2022/11/26 08:42:56;;;;;;;11.10;8.13;;;;;;;5.37;51.96;94583.91;5089605;28;20092;-77
2022/11/26 08:45:21;;;;;;;12.02;7.90;;;;;;;5.52;52.30;94586.59;5094450;28;20025;-77
2022/11/26 08:47:47;;;;;;;13.13;8.80;;;;;;;5.65;51.60;94587.91;5092382;28;20790;-76
2022/11/26 08:50:13;;;;;;;8.13;6.38;;;;;;;5.54;51.32;94565.19;5093088;28;20039;-76
2022/11/26 08:52:39;;;;;;;15.45;7.57;;;;;;;5.50;51.64;94590.53;5091879;28;20033;-76
2022/11/26 08:55:04;;;;;;;11.45;7.38;;;;;;;5.31;51.64;94595.50;5093808;28;20021;-77
2022/11/26 08:57:30;;;;;;;11.05;7.28;;;;;;;4.69;52.56;94541.03;5092715;28;20028;-77
2022/11/26 08:59:55;;;;;;;11.25;6.82;;;;;;;4.78;53.79;94601.94;5093298;28;20279;-77
2022/11/26 09:02:22;;;;;;;12.02;7.18;;;;;;;4.94;53.43;94584.34;5092865;28;20016;-77
2022/11/26 09:04:47;;;;;;;13.93;6.68;;;;;;;4.79;53.36;94571.09;5094124;28;20027;-76
2022/11/26 09:07:13;;;;;;;9.23;6.80;;;;;;;5.10;52.88;94584.09;5092022;28;20045;-76
2022/11/26 09:09:38;;;;;;;12.07;7.75;;;;;;;5.04;52.14;94574.59;5092693;28;20031;-75
2022/11/26 09:12:04;;;;;;;8.50;6.50;;;;;;;5.29;52.75;94591.53;5097945;28;20016;-75
2022/11/26 09:14:35;;;;;;;12.63;7.47;;;;;;;5.43;52.03;94588.13;5095834;28;20124;-76
2022/11/26 09:17:00;;;;;;;15.40;7.65;;;;;;;5.43;51.90;94576.81;5092694;28;20036;-77
2022/11/26 09:19:27;;;;;;;10.52;6.75;;;;;;;5.55;51.75;94574.69;5092096;28;20127;-76
2022/11/26 09:21:52;;;;;;;9.57;6.43;;;;;;;5.82;51.47;94596.34;5095688;28;20079;-75
2022/11/26 09:24:18;;;;;;;13.85;8.77;;;;;;;5.90;51.32;94587.13;5095391;28;20029;-78
2022/11/26 09:26:45;;;;;;;13.68;8.25;;;;;;;6.09;50.90;94588.16;5093565;28;21412;-77
2022/11/26 09:29:13;;;;;;;12.65;8.25;;;;;;;5.74;50.37;94549.34;5092952;28;20028;-76
2022/11/26 09:31:38;;;;;;;10.85;7.60;;;;;;;5.54;50.29;94542.22;5095295;28;20471;-77
2022/11/26 09:34:03;;;;;;;9.57;6.75;;;;;;;5.90;49.94;94550.16;5098029;28;20059;-76
2022/11/26 09:36:29;;;;;;;11.85;8.13;;;;;;;6.23;49.84;94575.22;5095629;28;20032;-76
2022/11/26 09:38:56;;;;;;;14.88;7.63;;;;;;;6.12;50.07;94563.84;5098934;28;20028;-77
2022/11/26 09:41:36;;;;;;;16.83;7.50;;;;;;;6.29;49.87;94574.16;5096888;28;20036;-76
2022/11/26 09:44:21;;;;;;;13.32;9.07;;;;;;;5.75;50.64;94584.47;5087452;28;20056;-77
2022/11/26 09:46:59;;;;;;;17.35;9.00;;;;;;;5.57;51.18;94575.25;5090735;28;20032;-78
2022/11/26 09:49:27;;;;;;;16.92;8.68;;;;;;;5.60;51.43;94550.16;5094571;28;20114;-78
2022/11/26 09:51:57;;;;;;;15.75;8.40;;;;;;;5.60;51.17;94561.50;5091091;28;20105;-77
2022/11/26 09:54:26;;;;;;;12.93;8.15;;;;;;;5.91;51.13;94578.94;5096351;28;20019;-76
2022/11/26 09:57:15;;;;;;;166.38;112.35;;;;;;;6.15;50.82;94567.81;5096756;28;20012;-77
2022/11/26 09:59:42;;;;;;;225.73;140.40;;;;;;;6.25;50.62;94557.25;5097218;28;20043;-76
2022/11/26 10:02:11;;;;;;;19.45;13.90;;;;;;;6.38;49.72;94564.63;5094885;28;20055;-76
2022/11/26 10:04:38;;;;;;;13.40;9.00;;;;;;;6.55;49.71;94556.41;5097413;28;20037;-76
2022/11/26 10:07:18;;;;;;;13.68;8.95;;;;;;;6.20;50.32;94550.16;5094461;28;20051;-77
2022/11/26 10:10:04;;;;;;;13.15;9.63;;;;;;;6.32;49.94;94548.00;5087355;28;20028;-76
2022/11/26 10:12:53;;;;;;;18.50;9.82;;;;;;;6.33;49.83;94548.78;5091573;28;20049;-76
2022/11/26 10:15:37;;;;;;;21.30;14.05;;;;;;;6.51;50.19;94529.69;5095230;28;20071;-75
2022/11/26 10:18:15;;;;;;;14.95;9.75;;;;;;;6.72;49.56;94547.06;5098344;28;20040;-75
2022/11/26 10:21:11;;;;;;;14.77;8.80;;;;;;;6.57;49.42;94546.31;5096883;28;20045;-75
2022/11/26 10:23:45;;;;;;;16.63;8.45;;;;;;;6.75;49.24;94533.31;5097402;28;20028;-77
2022/11/26 10:26:26;;;;;;;14.77;9.35;;;;;;;6.89;48.84;94535.38;5093713;28;20066;-77
2022/11/26 10:29:14;;;;;;;15.77;9.77;;;;;;;6.37;49.24;94512.84;5095433;28;20579;-77
2022/11/26 10:31:43;;;;;;;13.98;8.93;;;;;;;6.52;49.21;94531.28;5089189;28;20025;-77
2022/11/26 10:34:15;;;;;;;14.90;8.10;;;;;;;6.36;49.72;94533.19;5092053;28;20119;-76
2022/11/26 10:36:44;;;;;;;12.40;9.00;;;;;;;6.23;50.30;94509.97;5098387;28;20032;-77
2022/11/26 10:39:15;;;;;;;12.85;7.85;;;;;;;6.36;49.99;94524.50;5094836;28;20471;-76
2022/11/26 10:41:41;;;;;;;26.27;11.45;;;;;;;6.70;49.45;94528.03;5088400;28;20024;-76
2022/11/26 10:44:33;;;;;;;16.27;9.57;;;;;;;6.68;49.31;94519.59;5095790;28;20050;-74
2022/11/26 10:47:16;;;;;;;22.85;12.27;;;;;;;6.97;48.72;94530.31;5091309;28;20064;-76
2022/11/26 10:49:42;;;;;;;23.70;11.23;;;;;;;6.94;48.21;94515.00;5095181;28;20096;-76
2022/11/26 10:52:08;;;;;;;15.32;8.55;;;;;;;7.03;47.99;94523.13;5096838;28;20036;-76
2022/11/26 10:54:36;;;;;;;14.82;10.43;;;;;;;7.14;48.06;94522.78;5091593;28;20103;-76
2022/11/26 10:57:07;;;;;;;18.65;10.02;;;;;;;7.15;48.25;94528.88;5088864;28;20035;-77
2022/11/26 10:59:55;;;;;;;13.00;8.02;;;;;;;7.16;48.09;94510.09;5095377;28;21036;-74
2022/11/26 11:02:39;;;;;;;15.50;8.52;;;;;;;7.11;47.76;94531.28;5093146;28;20032;-76
2022/11/26 11:05:07;;;;;;;12.77;8.90;;;;;;;6.82;48.29;94510.00;5091349;28;20037;-77
2022/11/26 11:07:36;;;;;;;23.33;11.25;;;;;;;6.97;48.38;94535.59;5092239;28;20511;-75
2022/11/26 11:10:15;;;;;;;15.27;9.43;;;;;;;7.04;48.46;94522.06;5096129;28;20044;-75
2022/11/26 11:12:42;;;;;;;12.55;8.70;;;;;;;6.66;48.13;94473.34;5086799;28;20052;-75
2022/11/26 11:15:17;;;;;;;16.67;8.88;;;;;;;7.08;48.29;94534.47;5094085;28;20103;-75
2022/11/26 11:17:43;;;;;;;13.57;8.13;;;;;;;7.11;47.81;94535.78;5098666;28;20036;-75
2022/11/26 11:20:14;;;;;;;15.93;9.00;;;;;;;7.32;47.57;94534.59;5093247;28;20060;-77
2022/11/26 11:22:41;;;;;;;11.95;8.95;;;;;;;7.19;47.58;94540.50;5094738;28;20051;-75
2022/11/26 11:25:22;;;;;;;13.50;7.75;;;;;;;7.23;47.07;94537.03;5092709;28;20058;-75
2022/11/26 11:27:48;;;;;;;14.38;9.68;;;;;;;7.23;46.69;94536.25;5101408;28;20036;-75
2022/11/26 11:30:28;;;;;;;13.50;8.10;;;;;;;6.84;47.07;94502.63;5093049;28;20033;-75
2022/11/26 11:32:56;;;;;;;12.35;7.13;;;;;;;7.23;46.95;94509.78;5092949;28;20687;-77
2022/11/26 11:35:25;;;;;;;17.98;11.65;;;;;;;7.32;47.33;94529.31;5095304;28;20028;-77
2022/11/26 11:37:55;;;;;;;13.85;7.72;;;;;;;7.15;46.72;94489.97;5093130;28;20067;-76
2022/11/26 11:40:27;;;;;;;14.90;8.00;;;;;;;7.23;46.58;94499.22;5092031;28;20078;-76
2022/11/26 11:42:53;;;;;;;9.25;6.43;;;;;;;7.45;46.21;94518.09;5092668;28;20436;-75